Time;durP1;ratioP1;P1;durP2;ratioP2;P2;SDS_P1;SDS_P2;PMS_P1;PMS_P2;Temp;Humidity;BMP_temperature;BMP_pressure;BME280_temperature;BME280_humidity;BME280_pressure;Samples;Min_cycle;Max_cycle;Signal;HPM_P1;HPM_P2
2022/09/19 00:01:49;;;;;;;0.20;0.20;;;12.80;99.90;;;;;;5032273;28;20233;-48
2022/09/19 00:04:18;;;;;;;0.27;0.20;;;12.80;99.90;;;;;;5030649;28;20349;-49
2022/09/19 00:06:46;;;;;;;1.43;0.20;;;12.80;99.90;;;;;;5031960;28;20201;-49
2022/09/19 00:09:16;;;;;;;2.33;0.40;;;12.80;99.90;;;;;;5032045;28;20218;-49
2022/09/19 00:11:45;;;;;;;0.20;0.20;;;12.80;99.90;;;;;;5031810;28;20210;-50
2022/09/19 00:14:13;;;;;;;0.30;0.30;;;12.70;99.90;;;;;;5022892;28;20208;-50
2022/09/19 00:16:44;;;;;;;0.20;0.20;;;12.70;99.90;;;;;;5034784;28;20656;-49
2022/09/19 00:19:14;;;;;;;0.97;0.30;;;12.70;99.90;;;;;;5027501;28;20256;-50
2022/09/19 00:21:43;;;;;;;0.97;0.20;;;12.60;99.90;;;;;;5034975;28;20212;-49
2022/09/19 00:26:56;;;;;;;0.80;0.13;;;12.60;99.90;;;;;;5035818;28;20208;-51
2022/09/19 00:29:25;;;;;;;0.70;0.20;;;12.60;99.90;;;;;;5035586;28;20214;-48
2022/09/19 00:31:52;;;;;;;1.73;0.40;;;12.60;99.90;;;;;;5034465;28;20240;-50
2022/09/19 00:34:21;;;;;;;0.60;0.30;;;12.60;99.90;;;;;;5035273;28;20201;-50
2022/09/19 00:36:48;;;;;;;0.60;0.40;;;12.50;99.90;;;;;;5035044;28;20205;-49
2022/09/19 00:39:19;;;;;;;0.30;0.30;;;12.50;99.90;;;;;;5035269;28;20232;-49
2022/09/19 00:41:47;;;;;;;0.50;0.40;;;12.50;99.90;;;;;;5035874;28;20235;-48
2022/09/19 00:44:51;;;;;;;0.50;0.20;;;12.50;99.90;;;;;;5033908;28;20272;-48
2022/09/19 00:47:25;;;;;;;1.70;0.30;;;12.60;99.90;;;;;;5029437;28;20206;-48
2022/09/19 00:49:57;;;;;;;1.47;0.30;;;12.60;99.90;;;;;;5035613;28;20202;-49
2022/09/19 00:52:30;;;;;;;0.60;0.37;;;12.60;99.90;;;;;;5035533;28;20202;-48
2022/09/19 00:54:57;;;;;;;0.40;0.30;;;12.60;99.90;;;;;;5035383;28;20209;-48
2022/09/19 00:57:33;;;;;;;0.77;0.20;;;12.60;99.90;;;;;;5027273;28;20778;-48
2022/09/19 01:00:01;;;;;;;0.20;0.20;;;12.60;99.90;;;;;;5031331;28;20228;-49
2022/09/19 01:02:29;;;;;;;1.93;0.40;;;12.60;99.90;;;;;;5022585;28;20214;-49
2022/09/19 01:04:58;;;;;;;0.93;0.40;;;12.60;99.90;;;;;;5035206;28;20596;-49
2022/09/19 01:07:35;;;;;;;1.70;0.23;;;12.50;99.90;;;;;;5035261;28;20248;-48
2022/09/19 01:10:09;;;;;;;1.27;0.23;;;12.50;99.90;;;;;;5031207;28;20219;-48
2022/09/19 01:12:47;;;;;;;0.37;0.20;;;12.50;99.90;;;;;;5035393;28;20198;-47
2022/09/19 01:15:26;;;;;;;0.57;0.40;;;12.50;99.90;;;;;;5034996;28;20202;-48
2022/09/19 01:17:57;;;;;;;0.30;0.30;;;12.50;99.90;;;;;;5035343;28;20568;-48
2022/09/19 01:20:57;;;;;;;3.40;0.30;;;12.50;99.90;;;;;;5034845;28;20232;-48
2022/09/19 01:23:44;;;;;;;2.23;0.20;;;12.40;99.90;;;;;;5025349;28;20198;-49
2022/09/19 01:26:33;;;;;;;0.37;0.23;;;12.40;99.90;;;;;;5034574;28;20221;-48
2022/09/19 01:29:07;;;;;;;1.17;0.40;;;12.40;99.90;;;;;;5034647;28;20230;-47
2022/09/19 01:31:38;;;;;;;0.30;0.23;;;12.30;99.90;;;;;;5034747;28;20244;-49
2022/09/19 01:34:08;;;;;;;1.43;0.40;;;12.30;99.90;;;;;;5034342;28;20198;-54
2022/09/19 01:37:03;;;;;;;4.93;0.37;;;12.30;99.90;;;;;;5024299;28;20706;-48
2022/09/19 01:39:33;;;;;;;0.43;0.20;;;12.30;99.90;;;;;;5022798;28;20232;-49
2022/09/19 01:42:01;;;;;;;0.57;0.30;;;12.20;99.90;;;;;;5034475;28;20199;-48
2022/09/19 01:44:31;;;;;;;0.30;0.30;;;12.20;99.90;;;;;;5026010;28;20210;-49
2022/09/19 01:47:11;;;;;;;0.57;0.27;;;12.10;99.90;;;;;;5033969;28;20205;-48
2022/09/19 01:49:47;;;;;;;1.13;0.53;;;12.10;99.90;;;;;;5034427;28;20353;-48
2022/09/19 01:52:23;;;;;;;1.70;0.43;;;12.00;99.90;;;;;;5034354;28;20215;-49
2022/09/19 01:54:58;;;;;;;1.10;0.20;;;12.00;99.90;;;;;;5031734;28;20802;-49
2022/09/19 01:57:34;;;;;;;0.30;0.27;;;11.90;99.90;;;;;;5033380;28;20290;-48
2022/09/19 02:00:12;;;;;;;2.70;0.30;;;11.90;99.90;;;;;;5025782;28;20209;-49
2022/09/19 02:02:47;;;;;;;0.20;0.20;;;11.80;99.90;;;;;;5031244;28;20232;-48
2022/09/19 02:05:21;;;;;;;2.03;0.93;;;11.90;99.90;;;;;;5033805;28;20208;-48
2022/09/19 02:07:59;;;;;;;0.53;0.20;;;12.00;99.90;;;;;;5024584;28;21384;-47
2022/09/19 02:10:31;;;;;;;0.40;0.20;;;11.90;99.90;;;;;;5033460;28;20206;-47
2022/09/19 02:13:03;;;;;;;3.00;0.60;;;11.80;99.90;;;;;;5035458;28;20681;-48
2022/09/19 02:15:32;;;;;;;1.40;0.30;;;11.80;99.90;;;;;;5033665;28;20203;-48
2022/09/19 02:18:04;;;;;;;0.30;0.30;;;11.80;99.90;;;;;;5029474;28;20226;-48
2022/09/19 02:20:34;;;;;;;2.80;0.40;;;11.70;99.90;;;;;;5033405;28;20678;-49
2022/09/19 02:23:06;;;;;;;1.50;0.30;;;11.70;99.90;;;;;;5032793;28;20607;-48
2022/09/19 02:25:35;;;;;;;0.93;0.80;;;11.60;99.90;;;;;;5025777;28;20622;-47
2022/09/19 02:28:06;;;;;;;0.40;0.40;;;11.60;99.90;;;;;;5029099;28;20222;-48
2022/09/19 02:30:36;;;;;;;1.17;0.57;;;11.70;99.90;;;;;;5029721;28;20212;-48
2022/09/19 02:33:06;;;;;;;1.07;0.50;;;11.70;99.90;;;;;;5034659;28;20216;-49
2022/09/19 02:35:41;;;;;;;0.83;0.83;;;11.60;99.90;;;;;;5025513;28;20583;-48
2022/09/19 02:38:16;;;;;;;1.97;1.23;;;11.70;99.90;;;;;;5012995;28;20232;-47
2022/09/19 02:40:50;;;;;;;0.30;0.30;;;11.70;99.90;;;;;;5013709;28;20227;-48
2022/09/19 02:43:27;;;;;;;0.20;0.20;;;11.60;99.90;;;;;;5024572;28;20259;-49
2022/09/19 02:45:58;;;;;;;1.40;0.30;;;11.70;99.90;;;;;;5029641;28;20204;-48
2022/09/19 02:48:31;;;;;;;0.20;0.20;;;11.70;99.90;;;;;;5033137;28;20355;-48
2022/09/19 02:51:04;;;;;;;0.40;0.40;;;11.80;99.90;;;;;;5033202;28;20205;-48
2022/09/19 02:53:42;;;;;;;1.40;0.30;;;11.70;99.90;;;;;;5032459;28;20216;-49
2022/09/19 02:56:11;;;;;;;2.53;0.40;;;11.70;99.90;;;;;;5033292;28;20209;-49
2022/09/19 02:58:44;;;;;;;1.67;0.30;;;11.60;99.90;;;;;;5031687;28;20257;-48
2022/09/19 03:01:18;;;;;;;2.43;0.40;;;11.60;99.90;;;;;;5032803;28;20575;-48
2022/09/19 03:06:37;;;;;;;1.40;0.37;;;11.60;99.90;;;;;;5032881;28;20200;-48
2022/09/19 03:09:07;;;;;;;0.60;0.50;;;11.60;99.90;;;;;;5023775;28;20224;-48
2022/09/19 03:11:38;;;;;;;4.23;0.30;;;11.60;99.90;;;;;;5033334;28;20597;-48
2022/09/19 03:14:06;;;;;;;0.47;0.30;;;11.60;99.90;;;;;;5035641;28;20609;-48
2022/09/19 03:16:37;;;;;;;1.17;0.37;;;11.60;99.90;;;;;;5032439;28;20678;-48
2022/09/19 03:19:06;;;;;;;2.20;0.40;;;11.70;99.90;;;;;;5026915;28;20222;-47
2022/09/19 03:21:33;;;;;;;1.37;0.40;;;11.80;99.90;;;;;;5032166;28;20706;-48
2022/09/19 03:24:00;;;;;;;0.43;0.40;;;11.60;99.90;;;;;;5031027;28;20208;-48
2022/09/19 03:26:30;;;;;;;1.90;0.40;;;11.60;99.90;;;;;;5027534;28;20732;-48
2022/09/19 03:28:58;;;;;;;0.87;0.30;;;11.70;99.90;;;;;;5032136;28;20231;-47
2022/09/19 03:31:26;;;;;;;0.50;0.50;;;11.70;99.90;;;;;;5019657;28;20207;-48
2022/09/19 03:33:56;;;;;;;1.83;0.50;;;11.70;99.90;;;;;;5030691;28;20252;-49
2022/09/19 03:36:24;;;;;;;0.40;0.40;;;11.60;99.90;;;;;;5024709;28;20492;-48
2022/09/19 03:38:51;;;;;;;1.43;0.40;;;11.60;99.90;;;;;;5022882;28;20218;-48
2022/09/19 03:41:20;;;;;;;0.47;0.47;;;11.60;99.90;;;;;;5031058;28;20230;-48
2022/09/19 03:43:49;;;;;;;1.50;0.30;;;11.60;99.90;;;;;;5028555;28;20296;-48
2022/09/19 03:46:19;;;;;;;1.37;0.30;;;11.70;99.90;;;;;;5030026;28;20240;-47
2022/09/19 03:48:47;;;;;;;0.60;0.20;;;11.60;99.90;;;;;;5027946;28;20658;-48
2022/09/19 03:51:17;;;;;;;0.93;0.47;;;11.60;99.90;;;;;;5031647;28;20203;-48
2022/09/19 03:53:45;;;;;;;0.83;0.20;;;11.60;99.90;;;;;;5030620;28;20202;-48
2022/09/19 03:56:13;;;;;;;0.43;0.30;;;11.70;99.90;;;;;;5028997;28;20208;-48
2022/09/19 03:58:41;;;;;;;0.97;0.30;;;11.80;99.90;;;;;;5031118;28;20710;-49
2022/09/19 04:01:09;;;;;;;2.93;0.40;;;11.80;99.90;;;;;;5026162;28;20224;-49
2022/09/19 04:03:38;;;;;;;0.53;0.33;;;11.80;99.90;;;;;;5031171;28;20205;-48
2022/09/19 04:06:06;;;;;;;2.80;0.50;;;11.70;99.90;;;;;;5029523;28;20207;-48
2022/09/19 04:08:35;;;;;;;3.43;0.20;;;11.80;99.90;;;;;;5031605;28;20258;-48
2022/09/19 04:11:03;;;;;;;0.83;0.30;;;11.80;99.90;;;;;;5031554;28;20209;-47
2022/09/19 04:13:32;;;;;;;2.03;0.30;;;11.70;99.90;;;;;;5030126;28;20682;-48
2022/09/19 04:16:00;;;;;;;0.73;0.20;;;11.60;99.90;;;;;;5031195;28;20212;-48
2022/09/19 04:18:27;;;;;;;0.30;0.30;;;11.50;99.90;;;;;;5030370;28;20250;-48
2022/09/19 04:20:55;;;;;;;0.20;0.20;;;11.30;99.90;;;;;;5031451;28;20220;-48
2022/09/19 04:23:26;;;;;;;0.30;0.30;;;11.20;99.90;;;;;;5031301;28;20243;-48
2022/09/19 04:25:55;;;;;;;0.63;0.40;;;11.00;99.90;;;;;;5031444;28;20210;-48
2022/09/19 04:28:23;;;;;;;0.23;0.23;;;11.00;99.90;;;;;;5031140;28;20228;-48
2022/09/19 04:30:50;;;;;;;1.60;0.30;;;10.80;99.90;;;;;;5028373;28;20205;-48
2022/09/19 04:33:18;;;;;;;2.43;0.47;;;10.80;99.90;;;;;;5030982;28;20697;-49
2022/09/19 04:35:46;;;;;;;3.30;0.60;;;10.80;99.90;;;;;;5031224;28;20297;-48
2022/09/19 04:38:17;;;;;;;0.50;0.50;;;10.80;99.90;;;;;;5029825;28;20226;-49
2022/09/19 04:40:45;;;;;;;0.40;0.23;;;10.80;99.90;;;;;;5029894;28;20224;-49
2022/09/19 04:43:16;;;;;;;0.87;0.40;;;10.70;99.90;;;;;;5030882;28;20194;-48
2022/09/19 04:45:48;;;;;;;0.97;0.40;;;10.80;99.90;;;;;;5030063;28;20208;-48
2022/09/19 04:48:15;;;;;;;1.40;0.50;;;10.70;99.90;;;;;;5029845;28;20641;-48
2022/09/19 04:50:44;;;;;;;0.90;0.90;;;10.80;99.90;;;;;;5023609;28;20198;-47
2022/09/19 04:53:14;;;;;;;1.30;0.57;;;10.80;99.90;;;;;;5028249;28;20690;-47
2022/09/19 04:55:41;;;;;;;1.90;0.60;;;10.80;99.90;;;;;;5028442;28;20205;-48
2022/09/19 04:58:10;;;;;;;0.50;0.33;;;10.80;99.90;;;;;;5028841;28;20221;-48
2022/09/19 05:00:39;;;;;;;3.67;0.60;;;10.80;99.90;;;;;;5030829;28;20225;-48
2022/09/19 05:03:08;;;;;;;0.67;0.40;;;10.90;99.90;;;;;;5034012;28;20702;-48
2022/09/19 05:05:37;;;;;;;1.67;0.70;;;10.80;99.90;;;;;;5034332;28;20248;-47
2022/09/19 05:08:06;;;;;;;2.10;0.83;;;10.90;99.90;;;;;;5034797;28;20275;-48
2022/09/19 05:10:33;;;;;;;3.13;0.47;;;11.00;99.90;;;;;;5034932;28;20198;-47
2022/09/19 05:13:01;;;;;;;1.03;0.50;;;10.90;99.90;;;;;;5034725;28;20212;-47
2022/09/19 05:15:28;;;;;;;1.50;0.47;;;10.90;99.90;;;;;;5034613;28;20209;-48
2022/09/19 05:17:57;;;;;;;2.00;0.43;;;10.90;99.90;;;;;;5046977;28;20232;-49
2022/09/19 05:20:26;;;;;;;1.80;0.60;;;11.00;99.90;;;;;;5050807;28;20266;-48
2022/09/19 05:22:59;;;;;;;0.30;0.30;;;11.00;99.90;;;;;;5034473;28;20206;-48
2022/09/19 05:25:28;;;;;;;2.70;0.50;;;10.90;99.90;;;;;;5030365;28;20290;-47
2022/09/19 05:27:57;;;;;;;2.10;0.50;;;10.90;99.90;;;;;;5027541;28;20707;-48
2022/09/19 05:30:26;;;;;;;0.67;0.40;;;10.90;99.90;;;;;;5033734;28;20215;-48
2022/09/19 05:32:53;;;;;;;0.40;0.30;;;11.10;99.90;;;;;;5034023;28;20205;-48
2022/09/19 05:35:21;;;;;;;0.87;0.50;;;11.00;99.90;;;;;;5033669;28;20217;-48
2022/09/19 05:37:49;;;;;;;0.50;0.20;;;11.10;99.90;;;;;;5028225;28;20594;-48
2022/09/19 05:40:16;;;;;;;0.20;0.20;;;11.20;99.90;;;;;;5033921;28;20715;-47
2022/09/19 05:42:46;;;;;;;0.73;0.73;;;11.20;99.90;;;;;;5033879;28;20228;-48
2022/09/19 05:45:14;;;;;;;0.30;0.23;;;11.10;99.90;;;;;;5028905;28;20202;-47
2022/09/19 05:47:42;;;;;;;0.93;0.30;;;11.10;99.90;;;;;;5033006;28;20279;-48
2022/09/19 05:50:10;;;;;;;0.40;0.30;;;11.20;99.90;;;;;;5033939;28;20578;-48
2022/09/19 05:55:26;;;;;;;0.57;0.30;;;11.10;99.90;;;;;;5033320;28;20695;-47
2022/09/19 05:57:54;;;;;;;1.00;0.37;;;11.00;99.90;;;;;;5032381;28;20253;-49
2022/09/19 06:00:22;;;;;;;0.80;0.80;;;11.10;99.90;;;;;;5031313;28;20209;-48
2022/09/19 06:02:56;;;;;;;2.10;1.00;;;11.10;99.90;;;;;;5032424;28;20228;-48
2022/09/19 06:05:24;;;;;;;0.60;0.40;;;11.10;99.90;;;;;;5024979;28;20201;-48
2022/09/19 06:07:56;;;;;;;0.67;0.40;;;11.10;99.90;;;;;;5031889;28;20236;-47
2022/09/19 06:10:24;;;;;;;1.63;1.53;;;11.20;99.90;;;;;;5033510;28;20297;-47
2022/09/19 06:12:51;;;;;;;1.30;0.90;;;11.20;99.90;;;;;;5022545;28;20205;-48
2022/09/19 06:15:18;;;;;;;0.50;0.50;;;11.20;99.90;;;;;;5029668;28;20717;-49
2022/09/19 06:17:49;;;;;;;2.43;0.70;;;11.30;99.90;;;;;;5032737;28;20228;-48
2022/09/19 06:20:17;;;;;;;1.10;0.90;;;11.30;99.90;;;;;;5032991;28;20203;-48
2022/09/19 06:22:44;;;;;;;2.57;0.40;;;11.30;99.90;;;;;;5032902;28;20231;-48
2022/09/19 06:25:13;;;;;;;1.23;0.70;;;11.30;99.90;;;;;;5017170;28;20238;-48
2022/09/19 06:27:43;;;;;;;1.10;0.43;;;11.40;99.90;;;;;;5029426;28;20378;-49
2022/09/19 06:30:11;;;;;;;1.07;0.80;;;11.40;99.90;;;;;;5027462;28;20207;-48
2022/09/19 06:32:38;;;;;;;3.27;0.93;;;11.40;99.90;;;;;;5029904;28;20577;-48
2022/09/19 06:35:07;;;;;;;0.97;0.93;;;11.50;99.90;;;;;;5032903;28;20309;-48
2022/09/19 06:37:33;;;;;;;2.07;1.03;;;11.50;99.90;;;;;;5032067;28;20228;-51
2022/09/19 06:40:01;;;;;;;1.00;0.70;;;11.50;99.90;;;;;;5029045;28;20209;-48
2022/09/19 06:42:29;;;;;;;1.60;1.00;;;11.50;99.90;;;;;;5027286;28;20283;-49
2022/09/19 06:44:56;;;;;;;0.50;0.50;;;11.60;99.90;;;;;;5030868;28;20209;-48
2022/09/19 06:47:23;;;;;;;1.63;0.50;;;11.70;99.90;;;;;;5028385;28;20718;-48
2022/09/19 06:49:52;;;;;;;0.63;0.40;;;11.70;99.90;;;;;;5025813;28;20201;-48
2022/09/19 06:52:19;;;;;;;0.40;0.30;;;11.70;99.90;;;;;;5032645;28;20263;-48
2022/09/19 06:54:46;;;;;;;0.40;0.40;;;11.70;99.90;;;;;;5028760;28;20201;-48
2022/09/19 06:57:13;;;;;;;0.30;0.30;;;11.70;99.90;;;;;;5026455;28;20558;-48
2022/09/19 06:59:41;;;;;;;0.27;0.27;;;11.70;99.90;;;;;;5027856;28;20255;-48
2022/09/19 07:02:09;;;;;;;1.60;0.20;;;11.70;99.90;;;;;;5032205;28;20225;-47
2022/09/19 07:04:36;;;;;;;0.30;0.13;;;11.60;99.90;;;;;;5030947;28;20197;-48
2022/09/19 07:07:03;;;;;;;0.57;0.20;;;11.60;99.90;;;;;;5032311;28;20674;-49
2022/09/19 07:09:30;;;;;;;0.40;0.40;;;11.60;99.90;;;;;;5023707;28;20215;-48
2022/09/19 07:11:58;;;;;;;1.33;0.30;;;11.60;99.90;;;;;;5029173;28;20197;-48
2022/09/19 07:14:25;;;;;;;0.30;0.20;;;11.60;99.90;;;;;;5031622;28;20202;-47
2022/09/19 07:16:53;;;;;;;1.07;0.30;;;11.50;99.90;;;;;;5032026;28;20205;-48
2022/09/19 07:19:20;;;;;;;0.40;0.20;;;11.50;99.90;;;;;;5032414;28;20225;-48
2022/09/19 07:21:47;;;;;;;0.30;0.30;;;11.60;99.90;;;;;;5028171;28;20227;-48
2022/09/19 07:24:14;;;;;;;1.70;0.20;;;11.50;99.90;;;;;;5031635;28;20288;-48
2022/09/19 07:26:41;;;;;;;0.20;0.10;;;11.50;99.90;;;;;;5030890;28;20227;-48
2022/09/19 07:29:09;;;;;;;0.40;0.40;;;11.60;99.90;;;;;;5031886;28;20225;-49
2022/09/19 07:31:35;;;;;;;1.33;0.37;;;11.70;99.90;;;;;;5032476;28;20205;-48
2022/09/19 07:34:04;;;;;;;1.30;0.20;;;11.80;99.90;;;;;;5030212;28;20201;-48
2022/09/19 07:36:31;;;;;;;0.40;0.40;;;11.80;99.90;;;;;;5029995;28;20273;-48
2022/09/19 07:38:58;;;;;;;0.50;0.43;;;11.80;99.90;;;;;;5030958;28;20710;-49
2022/09/19 07:41:25;;;;;;;2.43;0.50;;;11.80;99.90;;;;;;5031649;28;20859;-49
2022/09/19 07:43:52;;;;;;;0.40;0.23;;;12.00;99.90;;;;;;5031876;28;20205;-50
2022/09/19 07:46:19;;;;;;;0.50;0.40;;;12.30;99.90;;;;;;5030843;28;20209;-48
2022/09/19 07:48:48;;;;;;;2.00;0.50;;;12.70;99.90;;;;;;5029475;28;20218;-48
2022/09/19 07:51:16;;;;;;;0.60;0.50;;;12.90;99.90;;;;;;5029875;28;20284;-49
2022/09/19 07:53:43;;;;;;;0.30;0.23;;;13.20;99.90;;;;;;5031227;28;20196;-49
2022/09/19 07:56:11;;;;;;;0.73;0.40;;;13.30;99.90;;;;;;5030688;28;20202;-49
2022/09/19 07:58:38;;;;;;;0.40;0.30;;;13.40;99.90;;;;;;5031642;28;20220;-48
2022/09/19 08:01:05;;;;;;;1.73;0.33;;;13.20;99.90;;;;;;5031634;28;20201;-48
2022/09/19 08:03:32;;;;;;;0.20;0.20;;;13.10;99.90;;;;;;5026332;28;20224;-48
2022/09/19 08:06:02;;;;;;;0.23;0.23;;;12.90;99.90;;;;;;5023365;28;20241;-48
2022/09/19 08:08:30;;;;;;;1.17;0.20;;;12.80;99.90;;;;;;5030390;28;20228;-48
2022/09/19 08:11:01;;;;;;;0.30;0.30;;;12.80;99.90;;;;;;5031812;28;20198;-49
2022/09/19 08:13:29;;;;;;;0.53;0.53;;;12.90;99.90;;;;;;5031491;28;20201;-49
2022/09/19 08:15:57;;;;;;;0.27;0.20;;;12.80;99.90;;;;;;5031618;28;20280;-48
2022/09/19 08:18:26;;;;;;;0.30;0.20;;;13.00;99.90;;;;;;5022937;28;20306;-48
2022/09/19 08:20:53;;;;;;;0.30;0.20;;;13.00;99.90;;;;;;5028189;28;20715;-48
2022/09/19 08:23:26;;;;;;;0.20;0.20;;;13.40;99.90;;;;;;5025783;28;20348;-47
2022/09/19 08:25:55;;;;;;;0.47;0.20;;;13.90;99.90;;;;;;5031481;28;20205;-48
2022/09/19 08:28:25;;;;;;;0.20;0.20;;;14.10;99.90;;;;;;5031450;28;20226;-49
2022/09/19 08:30:54;;;;;;;1.70;0.30;;;15.00;99.90;;;;;;5028665;28;20206;-48
2022/09/19 08:33:22;;;;;;;0.80;0.20;;;15.20;99.90;;;;;;5024385;28;20213;-48
2022/09/19 08:35:49;;;;;;;0.30;0.30;;;15.30;99.90;;;;;;5031310;28;20202;-48
2022/09/19 08:38:16;;;;;;;0.20;0.20;;;15.40;99.90;;;;;;5035246;28;20284;-49
2022/09/19 08:40:59;;;;;;;0.37;0.20;;;15.60;99.90;;;;;;5035154;28;20751;-49
2022/09/19 08:43:35;;;;;;;1.07;0.40;;;15.40;99.90;;;;;;5034976;28;20272;-48
2022/09/19 08:46:13;;;;;;;0.33;0.30;;;15.20;99.90;;;;;;5033235;28;20206;-49
2022/09/19 08:48:50;;;;;;;0.73;0.20;;;14.80;99.90;;;;;;5035181;28;20218;-49
2022/09/19 08:51:21;;;;;;;2.33;0.30;;;15.10;99.90;;;;;;5035020;28;20206;-48
2022/09/19 08:53:54;;;;;;;0.20;0.20;;;15.80;99.90;;;;;;5034742;28;20260;-48
2022/09/19 08:56:23;;;;;;;2.13;0.30;;;17.00;99.90;;;;;;5034807;28;20572;-48
2022/09/19 08:58:56;;;;;;;1.37;0.30;;;18.30;99.90;;;;;;5027770;28;20279;-49
2022/09/19 09:01:25;;;;;;;0.83;0.30;;;18.70;99.90;;;;;;5034789;28;20203;-49
2022/09/19 09:04:07;;;;;;;0.13;0.13;;;18.20;99.90;;;;;;5032939;28;20222;-48
2022/09/19 09:06:40;;;;;;;5.97;0.50;;;18.00;99.90;;;;;;5034894;28;20260;-49
2022/09/19 09:09:17;;;;;;;0.73;0.20;;;17.50;99.90;;;;;;5033857;28;20218;-49
2022/09/19 09:11:53;;;;;;;2.03;0.30;;;18.20;99.90;;;;;;5025672;28;20616;-49
2022/09/19 09:14:28;;;;;;;0.60;0.10;;;18.80;99.90;;;;;;5025583;28;20198;-50
2022/09/19 09:17:06;;;;;;;1.00;0.30;;;18.40;99.90;;;;;;5034355;28;20213;-49
2022/09/19 09:19:52;;;;;;;0.97;0.50;;;18.90;99.90;;;;;;5034413;28;20198;-49
2022/09/19 09:22:24;;;;;;;0.53;0.20;;;19.50;99.90;;;;;;5033494;28;20219;-50
2022/09/19 09:25:00;;;;;;;0.20;0.20;;;19.70;99.90;;;;;;5033920;28;20687;-49
2022/09/19 09:27:42;;;;;;;1.47;0.20;;;20.40;99.90;;;;;;5026370;28;20305;-50
2022/09/19 09:30:16;;;;;;;1.23;0.20;;;20.20;99.90;;;;;;5026793;28;20254;-50
2022/09/19 09:32:46;;;;;;;1.20;0.20;;;19.70;99.90;;;;;;5034487;28;20205;-49
2022/09/19 09:35:26;;;;;;;1.63;0.13;;;18.60;99.90;;;;;;5032862;28;20198;-49
2022/09/19 09:38:01;;;;;;;2.70;0.30;;;17.50;99.90;;;;;;5033894;28;20221;-49
2022/09/19 09:43:43;;;;;;;0.67;0.40;;;16.80;99.90;;;;;;5027974;28;20233;-49
2022/09/19 09:46:12;;;;;;;1.13;0.20;;;17.20;99.90;;;;;;5026084;28;20202;-50
2022/09/19 09:48:40;;;;;;;0.67;0.20;;;16.90;99.90;;;;;;5032368;28;20296;-49
2022/09/19 09:51:19;;;;;;;1.93;0.30;;;17.60;99.90;;;;;;5034080;28;20256;-49
2022/09/19 09:57:12;;;;;;;0.20;0.20;;;19.60;99.90;;;;;;5024958;28;20201;-49
2022/09/19 10:05:33;;;;;;;0.50;0.10;;;20.20;99.90;;;;;;5033973;28;20324;-49
2022/09/19 10:08:14;;;;;;;1.73;0.20;;;19.60;99.90;;;;;;5033593;28;20285;-50
2022/09/19 10:10:43;;;;;;;1.57;1.23;;;20.10;99.90;;;;;;5028658;28;20202;-49
2022/09/19 10:13:21;;;;;;;1.70;0.37;;;20.40;99.90;;;;;;5033066;28;20249;-49
2022/09/19 10:15:54;;;;;;;0.27;0.27;;;19.80;99.90;;;;;;5033690;28;20202;-49
2022/09/19 10:18:27;;;;;;;1.90;0.23;;;19.30;99.90;;;;;;5033571;28;20297;-50
2022/09/19 10:20:55;;;;;;;0.67;0.43;;;18.50;99.90;;;;;;5032209;28;20198;-49
2022/09/19 10:23:30;;;;;;;1.50;0.30;;;18.00;99.90;;;;;;5032244;28;20219;-49
2022/09/19 10:26:02;;;;;;;0.50;0.23;;;17.40;99.90;;;;;;5024827;28;20198;-50
2022/09/19 10:28:37;;;;;;;0.63;0.20;;;16.90;99.90;;;;;;5033422;28;20253;-50
2022/09/19 10:31:07;;;;;;;0.57;0.30;;;17.20;99.90;;;;;;5033288;28;20762;-49
2022/09/19 10:33:42;;;;;;;0.20;0.20;;;17.20;99.90;;;;;;5032090;28;20217;-49
2022/09/19 10:36:20;;;;;;;0.93;0.20;;;17.20;99.90;;;;;;5024624;28;20668;-49
2022/09/19 10:38:58;;;;;;;1.37;0.23;;;17.00;99.90;;;;;;5023952;28;20401;-50
2022/09/19 10:41:26;;;;;;;0.63;0.30;;;17.10;99.90;;;;;;5028034;28;20203;-49
2022/09/19 10:43:56;;;;;;;7.10;0.27;;;16.80;99.90;;;;;;5032583;28;20309;-49
2022/09/19 10:46:31;;;;;;;0.40;0.20;;;16.40;99.90;;;;;;5031806;28;20203;-49
2022/09/19 10:48:59;;;;;;;1.20;0.20;;;16.10;99.90;;;;;;5028729;28;20847;-49
2022/09/19 10:51:32;;;;;;;1.67;0.23;;;16.00;99.90;;;;;;5031449;28;20206;-48
2022/09/19 10:54:01;;;;;;;1.37;0.30;;;16.00;99.90;;;;;;5029685;28;20675;-49
2022/09/19 10:56:33;;;;;;;2.50;0.30;;;16.10;99.90;;;;;;5029884;28;20629;-48
2022/09/19 10:59:06;;;;;;;1.93;0.37;;;16.00;99.90;;;;;;5031950;28;20219;-49
2022/09/19 11:01:35;;;;;;;2.83;0.20;;;16.10;99.90;;;;;;5031346;28;20209;-49
2022/09/19 11:04:04;;;;;;;3.43;1.13;;;16.80;99.90;;;;;;5030684;28;20292;-49
2022/09/19 11:06:32;;;;;;;1.03;0.97;;;17.30;99.90;;;;;;5031162;28;20209;-49
2022/09/19 11:09:07;;;;;;;1.90;1.33;;;17.40;99.90;;;;;;5029847;28;20250;-51
2022/09/19 11:11:40;;;;;;;2.17;0.83;;;17.50;99.90;;;;;;5032332;28;20225;-49
2022/09/19 11:14:16;;;;;;;2.10;0.80;;;17.70;99.90;;;;;;5024758;28;20229;-48
2022/09/19 11:17:00;;;;;;;2.23;1.83;;;17.20;99.90;;;;;;5032128;28;20285;-49
2022/09/19 11:19:38;;;;;;;0.60;0.50;;;17.30;99.90;;;;;;5030059;28;20230;-49
2022/09/19 11:22:19;;;;;;;2.03;0.93;;;17.80;99.90;;;;;;5030296;28;20737;-49
2022/09/19 11:25:02;;;;;;;0.87;0.43;;;17.80;99.90;;;;;;5021347;28;20217;-49
2022/09/19 11:27:45;;;;;;;3.40;0.70;;;17.40;99.90;;;;;;5027466;28;20218;-52
2022/09/19 11:30:15;;;;;;;1.17;0.40;;;17.40;99.90;;;;;;5030342;28;20276;-49
2022/09/19 11:33:04;;;;;;;1.17;0.30;;;17.50;99.90;;;;;;5028129;28;20198;-49
2022/09/19 11:35:36;;;;;;;1.57;0.50;;;17.50;99.90;;;;;;5028241;28;20737;-49
2022/09/19 11:38:21;;;;;;;0.43;0.43;;;17.30;99.90;;;;;;5023908;28;20229;-49
2022/09/19 11:41:04;;;;;;;0.60;0.30;;;16.90;99.90;;;;;;5031818;28;20249;-49
2022/09/19 11:43:42;;;;;;;0.50;0.30;;;16.90;99.90;;;;;;5027405;28;20230;-49
2022/09/19 11:46:21;;;;;;;0.20;0.20;;;16.30;99.90;;;;;;5020348;28;20574;-48
2022/09/19 11:49:25;;;;;;;0.43;0.40;;;16.20;99.90;;;;;;5039465;28;20268;-49
2022/09/19 11:51:59;;;;;;;1.87;1.03;;;16.10;99.90;;;;;;5022549;28;20206;-49
2022/09/19 11:54:51;;;;;;;2.80;0.40;;;16.20;99.90;;;;;;5030538;28;20256;-48
2022/09/19 11:57:35;;;;;;;1.53;0.40;;;16.00;99.90;;;;;;5023055;28;20327;-47
2022/09/19 12:00:18;;;;;;;1.80;0.53;;;15.80;99.90;;;;;;5031622;28;20207;-48
2022/09/19 12:03:10;;;;;;;0.50;0.30;;;15.70;99.90;;;;;;5031210;28;20247;-48
2022/09/19 12:05:56;;;;;;;2.07;0.40;;;15.50;99.90;;;;;;5023571;28;20367;-49
2022/09/19 12:08:39;;;;;;;1.50;0.40;;;15.50;99.90;;;;;;5028188;28;20313;-49
2022/09/19 12:11:10;;;;;;;3.40;0.40;;;15.50;99.90;;;;;;5030400;28;20571;-49
2022/09/19 12:13:42;;;;;;;1.53;0.37;;;15.70;99.90;;;;;;5031302;28;20684;-49
2022/09/19 12:16:13;;;;;;;0.50;0.20;;;15.60;99.90;;;;;;5029664;28;20551;-49
2022/09/19 12:18:43;;;;;;;1.37;0.40;;;15.60;99.90;;;;;;5026813;28;20222;-49
2022/09/19 12:21:15;;;;;;;1.73;0.30;;;15.40;99.90;;;;;;5029405;28;20206;-49
2022/09/19 12:26:34;;;;;;;0.50;0.50;;;15.80;99.90;;;;;;5030406;28;20287;-49
2022/09/19 12:29:10;;;;;;;0.53;0.20;;;15.80;99.90;;;;;;5022993;28;20218;-48
2022/09/19 12:31:44;;;;;;;2.87;0.57;;;15.50;99.90;;;;;;5031395;28;20198;-48
2022/09/19 12:34:28;;;;;;;0.30;0.30;;;15.30;99.90;;;;;;5032103;28;20626;-48
2022/09/19 12:37:00;;;;;;;1.60;0.40;;;15.00;99.90;;;;;;5028010;28;20210;-49
2022/09/19 12:39:36;;;;;;;2.53;0.30;;;14.90;99.90;;;;;;5025810;28;20268;-49
2022/09/19 12:42:10;;;;;;;0.87;0.37;;;14.70;99.90;;;;;;5023227;28;20205;-49
2022/09/19 12:44:47;;;;;;;1.07;0.33;;;14.80;99.90;;;;;;5030644;28;20222;-48
2022/09/19 12:47:22;;;;;;;0.50;0.30;;;14.80;99.90;;;;;;5027909;28;20296;-48
2022/09/19 12:49:57;;;;;;;1.73;0.30;;;14.80;99.90;;;;;;5022578;28;20210;-49
2022/09/19 12:52:30;;;;;;;2.53;0.30;;;14.80;99.90;;;;;;5030625;28;20590;-49
2022/09/19 12:55:03;;;;;;;0.30;0.20;;;14.90;99.90;;;;;;5030531;28;20557;-48
2022/09/19 12:57:38;;;;;;;3.37;0.40;;;15.00;99.90;;;;;;5022821;28;20219;-49
2022/09/19 13:00:06;;;;;;;0.87;0.30;;;15.20;99.90;;;;;;5023183;28;20698;-49
2022/09/19 13:02:36;;;;;;;0.60;0.33;;;15.50;99.90;;;;;;5029285;28;20199;-48
2022/09/19 13:05:13;;;;;;;0.33;0.20;;;15.70;99.90;;;;;;5029235;28;20218;-49
2022/09/19 13:07:45;;;;;;;1.83;0.30;;;15.80;99.90;;;;;;5022058;28;20269;-49
2022/09/19 13:10:20;;;;;;;0.40;0.40;;;15.80;99.90;;;;;;5023527;28;20261;-48
2022/09/19 13:12:57;;;;;;;1.30;0.50;;;15.90;99.90;;;;;;5028986;28;20244;-48
2022/09/19 13:15:30;;;;;;;1.00;0.40;;;15.90;99.90;;;;;;5030547;28;20210;-49
2022/09/19 13:23:35;;;;;;;0.50;0.40;;;16.10;99.90;;;;;;5032968;28;20271;-49
2022/09/19 13:26:32;;;;;;;1.73;0.30;;;16.10;99.90;;;;;;5034325;28;20210;-49
2022/09/19 13:29:01;;;;;;;1.00;0.27;;;16.10;99.90;;;;;;5033932;28;20218;-49
2022/09/19 13:31:39;;;;;;;1.90;0.30;;;16.20;99.90;;;;;;5034246;28;20214;-48
2022/09/19 13:34:38;;;;;;;1.10;0.30;;;16.20;99.90;;;;;;5033723;28;20210;-49
2022/09/19 13:37:50;;;;;;;2.83;0.40;;;16.30;99.90;;;;;;5029658;28;20223;-49
2022/09/19 13:40:31;;;;;;;0.50;0.47;;;16.10;99.90;;;;;;5033843;28;20281;-50
2022/09/19 13:43:04;;;;;;;0.40;0.40;;;16.10;99.90;;;;;;5034236;28;20234;-49